Aviation Digital Data Service (ADDS)

Output produced by METARs form (1602 UTC 21 September 2017)
found at http://www.aviationweather.gov/adds/metars/
 
METAR text: KVIH 211553Z AUTO 20007KT 10SM CLR 30/22 A3006 RMK AO2 SLP164 T03000222
Conditions at: KVIH (VICHY/ROLLA , MO, US) observed 1553 UTC 21 September 2017
Temperature: 30.0°C (86°F)
Dewpoint: 22.2°C (72°F) [RH = 63%]
Pressure (altimeter): 30.06 inches Hg (1018.0 mb)
[Sea-level pressure: 1016.4 mb]
Winds: from the SSW (200 degrees) at 8 MPH (7 knots; 3.6 m/s)
Visibility: 10 or more miles (16+ km)
Ceiling: at least 12,000 feet AGL
Clouds: sky clear below 12,000 feet AGL
Weather: automated observation with no human augmentation;
there may or may not be significant weather present at this time